Time,TemperatureF,DewpointF,PressureIn,WindDirection,WindDirectionDegrees,WindSpeedMPH,WindSpeedGustMPH,Humidity,HourlyPrecipIn,Conditions,Clouds,dailyrainin,SoftwareType,DateUTC
2013-02-15 00:13:00,45.7,42.0,30.56,NNE,29,2.0,4.0,87,0.00,,,0.00,weatherlink.com 1.10,2013-02-15 08:13:00,
2013-02-15 00:28:00,45.3,42.0,30.56,WSW,246,0.0,6.0,88,0.00,,,0.00,weatherlink.com 1.10,2013-02-15 08:28:00,
2013-02-15 00:43:00,44.9,42.0,30.56,NW,319,0.0,3.0,89,0.00,,,0.00,weatherlink.com 1.10,2013-02-15 08:43:00,
2013-02-15 00:58:00,44.7,42.0,30.56,NW,309,5.0,5.0,90,0.00,,,0.00,weatherlink.com 1.10,2013-02-15 08:58:00,
2013-02-15 01:13:00,44.5,42.0,30.55,NNW,333,1.0,4.0,90,0.00,,,0.00,weatherlink.com 1.10,2013-02-15 09:13:00,
2013-02-15 01:28:00,43.9,41.0,30.55,NE,34,0.0,2.0,90,0.00,,,0.00,weatherlink.com 1.10,2013-02-15 09:28:00,
2013-02-15 01:43:00,43.9,42.0,30.55,NE,41,1.0,4.0,91,0.00,,,0.00,weatherlink.com 1.10,2013-02-15 09:43:00,
2013-02-15 01:58:00,43.7,41.0,30.55,NNE,29,2.0,2.0,91,0.00,,,0.00,weatherlink.com 1.10,2013-02-15 09:58:00,
2013-02-15 02:13:00,43.8,41.0,30.54,NW,309,2.0,7.0,91,0.00,,,0.00,weatherlink.com 1.10,2013-02-15 10:13:00,
2013-02-15 02:29:00,43.1,41.0,30.54,NNW,328,0.0,3.0,92,0.00,,,0.00,weatherlink.com 1.10,2013-02-15 10:29:00,
2013-02-15 02:43:00,42.9,41.0,30.53,North,357,0.0,4.0,93,0.00,,,0.00,weatherlink.com 1.10,2013-02-15 10:43:00,
2013-02-15 02:58:00,42.9,41.0,30.53,North,349,2.0,4.0,93,0.00,,,0.00,weatherlink.com 1.10,2013-02-15 10:58:00,
2013-02-15 03:13:00,42.6,41.0,30.53,NE,53,0.0,2.0,93,0.00,,,0.00,weatherlink.com 1.10,2013-02-15 11:13:00,
2013-02-15 03:28:00,41.9,40.0,30.52,NE,53,0.0,1.0,93,0.00,,,0.00,weatherlink.com 1.10,2013-02-15 11:28:00,
2013-02-15 03:43:00,41.0,39.0,30.52,NE,53,0.0,0.0,94,0.00,,,0.00,weatherlink.com 1.10,2013-02-15 11:43:00,
2013-02-15 03:58:00,41.9,41.0,30.52,NE,40,0.0,3.0,95,0.00,,,0.00,weatherlink.com 1.10,2013-02-15 11:58:00,
2013-02-15 04:13:00,42.8,42.0,30.51,NE,39,0.0,4.0,95,0.00,,,0.00,weatherlink.com 1.10,2013-02-15 12:13:00,
2013-02-15 04:29:00,43.5,42.0,30.51,NW,319,2.0,2.0,94,0.00,,,0.00,weatherlink.com 1.10,2013-02-15 12:29:00,
2013-02-15 04:44:00,43.9,42.0,30.51,NE,40,0.0,1.0,93,0.00,,,0.00,weatherlink.com 1.10,2013-02-15 12:44:00,
2013-02-15 04:59:00,43.9,42.0,30.50,NE,34,1.0,2.0,93,0.00,,,0.00,weatherlink.com 1.10,2013-02-15 12:59:00,
2013-02-15 05:14:00,44.0,42.0,30.50,NW,321,2.0,4.0,93,0.00,,,0.00,weatherlink.com 1.10,2013-02-15 13:14:00,
2013-02-15 05:29:00,44.1,42.0,30.49,NW,319,1.0,6.0,93,0.00,,,0.00,weatherlink.com 1.10,2013-02-15 13:29:00,
2013-02-15 05:44:00,44.0,42.0,30.49,NE,41,1.0,4.0,93,0.00,,,0.00,weatherlink.com 1.10,2013-02-15 13:44:00,
2013-02-15 05:59:00,43.9,42.0,30.49,ENE,61,1.0,4.0,93,0.00,,,0.00,weatherlink.com 1.10,2013-02-15 13:59:00,
2013-02-15 06:14:00,43.8,42.0,30.49,NE,35,4.0,6.0,93,0.00,,,0.00,weatherlink.com 1.10,2013-02-15 14:14:00,
2013-02-15 06:29:00,43.6,42.0,30.49,NW,307,0.0,6.0,93,0.00,,,0.00,weatherlink.com 1.10,2013-02-15 14:29:00,
2013-02-15 06:44:00,43.4,42.0,30.49,NE,38,2.0,6.0,93,0.00,,,0.00,weatherlink.com 1.10,2013-02-15 14:44:00,
2013-02-15 06:59:00,43.1,41.0,30.49,ENE,61,1.0,5.0,93,0.00,,,0.00,weatherlink.com 1.10,2013-02-15 14:59:00,
2013-02-15 07:14:00,43.1,41.0,30.48,ENE,62,0.0,7.0,93,0.00,,,0.00,weatherlink.com 1.10,2013-02-15 15:14:00,
2013-02-15 07:29:00,43.0,41.0,30.48,ESE,102,1.0,4.0,93,0.00,,,0.00,weatherlink.com 1.10,2013-02-15 15:29:00,
2013-02-15 07:44:00,43.0,41.0,30.48,NE,42,1.0,2.0,93,0.00,,,0.00,weatherlink.com 1.10,2013-02-15 15:44:00,
2013-02-15 07:59:00,43.0,41.0,30.48,NE,54,0.0,4.0,93,0.00,,,0.00,weatherlink.com 1.10,2013-02-15 15:59:00,
2013-02-15 08:14:00,43.1,41.0,30.48,NNW,336,1.0,3.0,93,0.00,,,0.00,weatherlink.com 1.10,2013-02-15 16:14:00,
2013-02-15 08:29:00,43.2,41.0,30.48,East,82,1.0,3.0,93,0.00,,,0.00,weatherlink.com 1.10,2013-02-15 16:29:00,
2013-02-15 08:44:00,43.3,42.0,30.47,NE,40,2.0,7.0,93,0.00,,,0.00,weatherlink.com 1.10,2013-02-15 16:44:00,
2013-02-15 08:59:00,43.3,41.0,30.48,NE,39,1.0,4.0,92,0.00,,,0.00,weatherlink.com 1.10,2013-02-15 16:59:00,
2013-02-15 09:14:00,43.3,41.0,30.48,NNE,33,1.0,5.0,92,0.00,,,0.00,weatherlink.com 1.10,2013-02-15 17:14:00,
2013-02-15 09:30:00,43.6,42.0,30.48,ESE,103,1.0,3.0,92,0.00,,,0.00,weatherlink.com 1.10,2013-02-15 17:30:00,
2013-02-15 09:44:00,43.5,41.0,30.47,NE,38,2.0,5.0,91,0.00,,,0.00,weatherlink.com 1.10,2013-02-15 17:44:00,
2013-02-15 09:59:00,43.7,41.0,30.47,NE,45,1.0,4.0,91,0.00,,,0.00,weatherlink.com 1.10,2013-02-15 17:59:00,
2013-02-15 10:14:00,44.2,42.0,30.46,NNE,19,0.0,2.0,91,0.00,,,0.00,weatherlink.com 1.10,2013-02-15 18:14:00,
2013-02-15 10:29:00,44.3,42.0,30.46,NE,56,3.0,4.0,90,0.00,,,0.00,weatherlink.com 1.10,2013-02-15 18:29:00,
2013-02-15 10:44:00,44.3,42.0,30.45,NNE,18,2.0,5.0,90,0.00,,,0.00,weatherlink.com 1.10,2013-02-15 18:44:00,
2013-02-15 10:59:00,44.9,42.0,30.45,NNE,27,0.0,4.0,89,0.00,,,0.00,weatherlink.com 1.10,2013-02-15 18:59:00,
2013-02-15 11:14:00,45.1,42.0,30.45,NE,42,1.0,4.0,89,0.00,,,0.00,weatherlink.com 1.10,2013-02-15 19:14:00,
2013-02-15 11:29:00,45.7,43.0,30.44,NW,314,0.0,3.0,89,0.00,,,0.00,weatherlink.com 1.10,2013-02-15 19:29:00,
2013-02-15 11:44:00,46.4,43.0,30.44,NE,49,2.0,3.0,88,0.00,,,0.00,weatherlink.com 1.10,2013-02-15 19:44:00,
2013-02-15 11:59:00,46.4,43.0,30.43,NE,52,0.0,7.0,86,0.00,,,0.00,weatherlink.com 1.10,2013-02-15 19:59:00,
2013-02-15 12:15:00,47.0,43.0,30.42,ENE,72,0.0,4.0,85,0.00,,,0.00,weatherlink.com 1.10,2013-02-15 20:15:00,
2013-02-15 12:29:00,47.0,43.0,30.41,ENE,71,0.0,6.0,85,0.00,,,0.00,weatherlink.com 1.10,2013-02-15 20:29:00,
2013-02-15 12:44:00,48.8,44.0,30.40,NE,46,4.0,5.0,82,0.00,,,0.00,weatherlink.com 1.10,2013-02-15 20:44:00,
2013-02-15 12:59:00,49.1,44.0,30.40,WNW,288,1.0,4.0,82,0.00,,,0.00,weatherlink.com 1.10,2013-02-15 20:59:00,
2013-02-15 13:15:00,51.2,45.0,30.38,NNE,29,2.0,3.0,80,0.00,,,0.00,weatherlink.com 1.10,2013-02-15 21:15:00,
2013-02-15 13:29:00,51.6,45.0,30.38,NE,39,4.0,5.0,78,0.00,,,0.00,weatherlink.com 1.10,2013-02-15 21:29:00,
2013-02-15 13:44:00,52.0,45.0,30.37,NNE,32,0.0,4.0,77,0.00,,,0.00,weatherlink.com 1.10,2013-02-15 21:44:00,
2013-02-15 14:00:00,52.6,45.0,30.36,ENE,77,0.0,5.0,76,0.00,,,0.00,weatherlink.com 1.10,2013-02-15 22:00:00,
2013-02-15 14:15:00,52.9,46.0,30.36,East,84,0.0,3.0,77,0.00,,,0.00,weatherlink.com 1.10,2013-02-15 22:15:00,
2013-02-15 14:30:00,53.9,47.0,30.35,South,170,0.0,4.0,76,0.00,,,0.00,weatherlink.com 1.10,2013-02-15 22:30:00,
2013-02-15 14:45:00,54.5,46.0,30.34,NE,44,0.0,3.0,72,0.00,,,0.00,weatherlink.com 1.10,2013-02-15 22:45:00,
2013-02-15 15:00:00,55.2,46.0,30.34,South,181,0.0,4.0,72,0.00,,,0.00,weatherlink.com 1.10,2013-02-15 23:00:00,
2013-02-15 15:15:00,55.8,47.0,30.33,SE,146,2.0,3.0,71,0.00,,,0.00,weatherlink.com 1.10,2013-02-15 23:15:00,
2013-02-15 15:30:00,55.7,47.0,30.33,SE,138,0.0,3.0,72,0.00,,,0.00,weatherlink.com 1.10,2013-02-15 23:30:00,
2013-02-15 15:45:00,54.7,47.0,30.34,South,187,0.0,5.0,75,0.00,,,0.00,weatherlink.com 1.10,2013-02-15 23:45:00,
2013-02-15 16:00:00,54.2,46.0,30.33,ESE,117,1.0,4.0,75,0.00,,,0.00,weatherlink.com 1.10,2013-02-16 00:00:00,
2013-02-15 16:15:00,53.0,46.0,30.32,ESE,116,2.0,4.0,77,0.00,,,0.00,weatherlink.com 1.10,2013-02-16 00:15:00,
2013-02-15 16:30:00,53.0,46.0,30.33,ESE,109,2.0,4.0,77,0.00,,,0.00,weatherlink.com 1.10,2013-02-16 00:30:00,
2013-02-15 16:45:00,51.8,46.0,30.33,SSE,166,1.0,4.0,80,0.00,,,0.00,weatherlink.com 1.10,2013-02-16 00:45:00,
2013-02-15 17:00:00,50.6,45.0,30.32,ESE,105,0.0,3.0,82,0.00,,,0.00,weatherlink.com 1.10,2013-02-16 01:00:00,
2013-02-15 17:15:00,49.5,45.0,30.32,SE,129,0.0,4.0,84,0.00,,,0.00,weatherlink.com 1.10,2013-02-16 01:15:00,
2013-02-15 17:30:00,48.3,44.0,30.32,ENE,77,0.0,3.0,86,0.00,,,0.00,weatherlink.com 1.10,2013-02-16 01:30:00,
2013-02-15 17:45:00,47.3,44.0,30.32,SSE,155,0.0,1.0,88,0.00,,,0.00,weatherlink.com 1.10,2013-02-16 01:45:00,
2013-02-15 18:00:00,46.1,43.0,30.33,ESE,105,0.0,2.0,90,0.00,,,0.00,weatherlink.com 1.10,2013-02-16 02:00:00,
2013-02-15 18:15:00,45.1,43.0,30.33,SSE,165,0.0,1.0,91,0.00,,,0.00,weatherlink.com 1.10,2013-02-16 02:15:00,
2013-02-15 18:30:00,44.5,42.0,30.33,ENE,73,0.0,1.0,92,0.00,,,0.00,weatherlink.com 1.10,2013-02-16 02:30:00,
2013-02-15 18:45:00,43.7,42.0,30.33,WSW,245,0.0,2.0,93,0.00,,,0.00,weatherlink.com 1.10,2013-02-16 02:45:00,
2013-02-15 19:00:00,42.9,41.0,30.33,WNW,284,0.0,2.0,93,0.00,,,0.00,weatherlink.com 1.10,2013-02-16 03:00:00,
2013-02-15 19:15:00,42.5,41.0,30.33,SE,144,0.0,2.0,94,0.00,,,0.00,weatherlink.com 1.10,2013-02-16 03:15:00,
2013-02-15 19:30:00,41.8,41.0,30.34,West,267,0.0,1.0,95,0.00,,,0.00,weatherlink.com 1.10,2013-02-16 03:30:00,
2013-02-15 19:45:00,41.1,40.0,30.34,West,267,0.0,0.0,95,0.00,,,0.00,weatherlink.com 1.10,2013-02-16 03:45:00,
2013-02-15 20:00:00,40.8,40.0,30.34,ESE,119,1.0,3.0,97,0.00,,,0.00,weatherlink.com 1.10,2013-02-16 04:00:00,
2013-02-15 20:15:00,41.2,40.0,30.34,SE,137,0.0,2.0,96,0.00,,,0.00,weatherlink.com 1.10,2013-02-16 04:15:00,
2013-02-15 20:30:00,41.4,41.0,30.34,ESE,110,0.0,1.0,97,0.00,,,0.00,weatherlink.com 1.10,2013-02-16 04:30:00,
2013-02-15 20:45:00,41.5,41.0,30.34,WSW,256,0.0,2.0,97,0.00,,,0.00,weatherlink.com 1.10,2013-02-16 04:45:00,
2013-02-15 21:00:00,41.6,41.0,30.34,ESE,117,0.0,1.0,97,0.00,,,0.00,weatherlink.com 1.10,2013-02-16 05:00:00,
2013-02-15 21:15:00,41.5,41.0,30.34,SE,127,0.0,1.0,97,0.00,,,0.00,weatherlink.com 1.10,2013-02-16 05:15:00,
2013-02-15 21:30:00,41.2,40.0,30.35,SSW,211,0.0,3.0,97,0.00,,,0.00,weatherlink.com 1.10,2013-02-16 05:30:00,
2013-02-15 21:45:00,41.1,40.0,30.35,SE,139,0.0,2.0,97,0.00,,,0.00,weatherlink.com 1.10,2013-02-16 05:45:00,
2013-02-15 22:00:00,41.0,40.0,30.35,SSE,150,0.0,3.0,97,0.00,,,0.00,weatherlink.com 1.10,2013-02-16 06:00:00,
2013-02-15 22:15:00,40.7,40.0,30.35,SE,129,0.0,2.0,97,0.00,,,0.00,weatherlink.com 1.10,2013-02-16 06:15:00,
2013-02-15 22:30:00,40.8,40.0,30.35,SE,131,0.0,2.0,97,0.00,,,0.00,weatherlink.com 1.10,2013-02-16 06:30:00,
2013-02-15 22:45:00,40.7,40.0,30.35,WSW,250,1.0,1.0,97,0.00,,,0.00,weatherlink.com 1.10,2013-02-16 06:45:00,
2013-02-15 23:00:00,40.6,40.0,30.35,WSW,240,0.0,2.0,97,0.00,,,0.00,weatherlink.com 1.10,2013-02-16 07:00:00,
2013-02-15 23:16:00,40.7,40.0,30.34,SW,226,0.0,1.0,98,0.00,,,0.00,weatherlink.com 1.10,2013-02-16 07:16:00,
2013-02-15 23:31:00,40.8,40.0,30.34,WNW,290,0.0,2.0,98,0.00,,,0.00,weatherlink.com 1.10,2013-02-16 07:31:00,
2013-02-15 23:45:00,41.2,41.0,30.34,SE,141,0.0,1.0,98,0.00,,,0.00,weatherlink.com 1.10,2013-02-16 07:45:00,